Latest Coastal Weather Observations for Laverton

IDV60701

Issued at 8:02 am EST Tuesday 28 June 2016 (issued every 10 minutes, with the page automatically refreshed every 10 minutes)

About coastal observations | Map of coastal stations | Coastal observations for VIC | Marine services | Other Formats
Station Details ID: 087031 Name: LAVERTON RAAF Lat: -37.86 Lon: 144.76 Height: 20.1 m
Data from the previous 72 hours. | See also: Recent months at Laverton
Date/Time
EST
Temp
°C
Wind Pressure Rain since
9am
mm
Weather Cloud Vis
km
Sea
Height
m
Swell
Dir  Spd
kts
Gust
kts
hPa Trend Height
m
Period
s
Dir
28/08:00am 7.7 N 6 7 1023.0 - 0.2 - Partly cloudy 10 - - - -
28/07:30am 7.5 N 5 8 1022.8 - 0.2 - - 10 - - - -
28/07:00am 8.2 NNW 8 9 1022.6 - 0.2 - Partly cloudy 10 - - - -
28/06:30am 7.6 N 7 10 1022.2 - 0.2 - Partly cloudy 10 - - - -
28/06:00am 7.8 NNW 9 12 1021.8 - 0.2 - Cloudy 10 - - - -
28/05:30am 7.7 NNW 9 11 1021.6 - 0.2 - Cloudy 10 - - - -
28/05:00am 7.6 NW 10 13 1021.5 - 0.2 - Partly cloudy 10 - - - -
28/04:30am 6.0 NNW 7 8 1021.4 - 0.2 - Partly cloudy 10 - - - -
28/04:00am 5.2 N 5 6 1021.4 - 0.2 - - 10 - - - -
28/03:30am 5.7 N 5 7 1021.4 - 0.2 - - 10 - - - -
28/03:00am 6.8 N 6 9 1021.4 - 0.2 - - 10 - - - -
28/02:30am 6.7 NNW 7 10 1021.3 - 0.2 - - 10 - - - -
28/02:00am 6.0 NNW 6 9 1021.3 - 0.2 - - 10 - - - -
28/01:30am 5.7 NW 8 11 1021.2 - 0.2 - - 10 - - - -
28/01:00am 5.0 NW 7 9 1021.2 - 0.2 - - 10 - - - -
28/12:30am 4.7 NW 5 7 1021.3 - 0.2 - - 10 - - - -
28/12:00am 5.0 NW 6 7 1021.3 - 0.2 - - 10 - - - -
 
Date/Time
EST
Temp
°C
Wind Pressure Rain since
9am
mm
Weather Cloud Vis
km
Sea
Height
m
Swell
Dir  Spd
kts
Gust
kts
hPa Trend Height
m
Period
s
Dir
27/11:30pm 5.0 NW 7 8 1021.2 - 0.2 - Partly cloudy 10 - - - -
27/11:00pm 5.4 NNW 6 8 1021.2 - 0.2 - Partly cloudy 10 - - - -
27/10:30pm 5.3 NNW 6 8 1021.2 - 0.2 - - 10 - - - -
27/10:00pm 5.7 NW 7 8 1021.0 - 0.2 - - 10 - - - -
27/09:30pm 5.8 NW 8 9 1020.9 - 0.2 - - 10 - - - -
27/09:00pm 5.8 NW 7 9 1020.6 - 0.2 - - 10 - - - -
27/08:30pm 5.7 NW 7 8 1020.4 - 0.2 - - 10 - - - -
27/08:00pm 5.9 NW 6 8 1020.3 - 0.2 - - 10 - - - -
27/07:30pm 7.3 NNW 6 8 1020.0 - 0.2 - - 10 - - - -
27/07:00pm 6.6 NW 8 10 1019.7 - 0.2 - - 10 - - - -
27/06:30pm 7.3 NW 6 7 1019.4 - 0.2 - - 10 - - - -
27/06:00pm 8.4 NNW 5 7 1019.2 - 0.2 - - 10 - - - -
27/05:30pm 9.4 NW 6 8 1018.9 - 0.2 - Partly cloudy 10 - - - -
27/05:00pm 10.4 NW 7 8 1018.5 - 0.2 - Partly cloudy 10 - - - -
27/04:30pm 11.3 NW 5 7 1018.2 - 0.2 - Cloudy 10 - - - -
27/04:00pm 11.6 W 6 8 1018.2 - 0.2 - Partly cloudy 10 - - - -
27/03:30pm 11.7 W 6 9 1017.9 - 0.2 - Cloudy 10 - - - -
27/03:00pm 11.4 W 6 9 1017.7 - 0.2 - Cloudy 10 - - - -
27/02:30pm 11.3 W 8 11 1017.5 - 0.2 - Partly cloudy 10 - - - -
27/02:00pm 11.3 W 7 11 1017.3 - 0.2 - Cloudy 10 - - - -
27/01:30pm 11.0 WSW 6 10 1017.5 - 0.2 - Cloudy 10 - - - -
27/01:00pm 11.0 WNW 5 9 1017.5 - 0.2 - Cloudy 10 - - - -
27/12:30pm 10.7 N 2 4 1017.5 - 0.2 - Cloudy 10 - - - -
27/12:00pm 10.1 NNE 5 8 1017.7 - 0.2 - Mostly cloudy 10 - - - -
27/11:30am 9.7 NNE 7 9 1017.7 - 0.2 - Partly cloudy 10 - - - -
27/11:00am 9.5 NNE 4 6 1017.8 - 0.2 - Cloudy 10 - - - -
27/10:30am 9.1 NNE 5 7 1017.9 - 0.2 - Cloudy 10 - - - -
27/10:00am 8.5 NNE 6 10 1017.7 - 0.2 - Partly cloudy 10 - - - -
27/09:30am 8.2 NNE 7 9 1017.5 - 0.2 - Cloudy 10 - - - -
27/09:00am 7.7 NNE 7 10 1017.4 - 0.2 - Mostly cloudy 10 - - - -
27/08:30am 7.3 NNE 6 10 1017.1 - 0.2 - Cloudy 10 - - - -
27/08:00am 7.2 NNE 7 9 1016.9 - 0.2 - Partly cloudy 10 - - - -
27/07:30am 7.0 NNE 6 7 1016.8 - 0.2 - Partly cloudy 10 - - - -
27/07:00am 6.9 NNE 6 7 1016.6 - 0.2 - Partly cloudy 10 - - - -
27/06:30am 6.7 NNE 5 7 1016.4 - 0.2 - Partly cloudy 10 - - - -
27/06:00am 6.8 NNE 6 7 1016.1 - 0.2 - Cloudy 10 - - - -
27/05:30am 6.2 NNE 5 6 1015.8 - 0.2 - Partly cloudy 10 - - - -
27/05:00am 6.4 NNE 5 7 1015.7 - 0.2 - Cloudy 10 - - - -
27/04:30am 6.5 NNE 6 7 1015.6 - 0.2 - Partly cloudy 10 - - - -
27/04:00am 5.9 NNE 6 7 1015.7 - 0.2 - Partly cloudy 10 - - - -
27/03:30am 5.5 NNE 5 7 1015.8 - 0.2 - Partly cloudy 10 - - - -
27/03:00am 5.1 N 6 8 1015.8 - 0.2 - Mostly clear 10 - - - -
27/02:30am 5.3 N 5 7 1015.9 - 0.2 - Partly cloudy 10 - - - -
27/02:00am 4.8 N 6 8 1016.1 - 0.2 - Partly cloudy 10 - - - -
27/01:30am 5.0 N 6 7 1016.1 - 0.2 - - 10 - - - -
27/01:00am 5.2 N 5 7 1016.1 - 0.2 - - 10 - - - -
27/12:30am 5.8 N 7 9 1016.2 - 0.2 - Partly cloudy 10 - - - -
27/12:00am 6.1 N 8 10 1016.3 - 0.2 - Mostly clear 10 - - - -
 
Date/Time
EST
Temp
°C
Wind Pressure Rain since
9am
mm
Weather Cloud Vis
km
Sea
Height
m
Swell
Dir  Spd
kts
Gust
kts
hPa Trend Height
m
Period
s
Dir
26/11:30pm 6.5 N 8 11 1016.3 - 0.2 - - 10 - - - -
26/11:00pm 6.6 N 9 13 1016.3 - 0.2 - - 10 - - - -
26/10:30pm 6.8 N 9 14 1016.3 - 0.2 - - 10 - - - -
26/10:00pm 6.6 N 7 11 1016.6 - 0.2 - - 10 - - - -
26/09:30pm 6.5 N 8 11 1016.7 - 0.2 - - 10 - - - -
26/09:00pm 6.5 N 7 9 1016.8 - 0.2 - Cloudy 10 - - - -
26/08:30pm 6.4 N 7 9 1017.1 - 0.2 - - 10 - - - -
26/08:00pm 6.6 N 7 9 1017.2 - 0.2 - - 10 - - - -
26/07:30pm 6.7 N 7 9 1017.1 - 0.2 - - 10 - - - -
26/07:00pm 6.7 N 6 9 1017.3 - 0.2 - - 10 - - - -
26/06:30pm 7.2 N 7 11 1017.2 - 0.2 - - 10 - - - -
26/06:00pm 7.7 N 8 12 1017.1 - 0.2 - Mostly cloudy 10 - - - -
26/05:30pm 7.6 N 8 10 1017.0 - 0.2 - - 10 - - - -
26/05:00pm 8.3 N 7 9 1017.1 - 0.2 - Partly cloudy 10 - - - -
26/04:30pm 9.0 NNW 10 13 1017.2 - 0.2 - Cloudy 10 - - - -
26/04:00pm 9.4 NNW 9 13 1017.2 - 0.2 - Partly cloudy 10 - - - -
26/03:30pm 9.5 NW 12 17 1017.2 - 0.2 - Cloudy 10 - - - -
26/03:00pm 9.8 NNW 13 17 1017.3 - 0.2 - Cloudy 10 - - - -
26/02:30pm 10.0 NNW 9 14 1017.4 - 0.2 - Cloudy 10 - - - -
26/02:00pm 10.3 NNW 12 17 1017.5 - 0.2 - Partly cloudy 10 - - - -
26/01:30pm 10.7 NNW 12 18 1017.7 - 0.2 - Partly cloudy 10 - - - -
26/01:00pm 10.6 N 9 13 1018.0 - 0.2 - Partly cloudy 10 - - - -
26/12:30pm 10.1 NNE 11 15 1018.2 - 0.2 - Partly cloudy 10 - - - -
26/12:00pm 9.8 NNE 9 14 1018.5 - 0.2 Rain - 10 - - - -
26/11:30am 9.5 NNE 8 11 1019.1 - 0.0 - Partly cloudy 10 - - - -
26/11:00am 8.7 NNE 9 12 1019.6 - 0.0 - - 10 - - - -
26/10:30am 7.8 NNE 9 12 1020.1 - 0.0 - - 10 - - - -
26/10:00am 6.8 NNE 9 11 1020.4 - 0.0 - - 10 - - - -
26/09:30am 6.0 NNE 9 13 1020.7 - 0.0 - - 10 - - - -
26/09:00am 5.1 NNE 5 9 1020.7 - 0.2 - - 10 - - - -
26/08:30am 3.2 N 5 7 1020.9 - 0.2 - - 10 - - - -
26/08:00am 2.1 N 5 7 1021.1 - 0.2 - - 10 - - - -
26/07:30am 1.9 N 6 9 1020.9 - 0.2 - - 10 - - - -
26/07:00am 1.9 N 5 6 1020.8 - 0.2 - - 10 - - - -
26/06:30am 1.0 N 4 5 1020.7 - 0.2 - - 10 - - - -
26/06:00am 1.3 N 4 5 1020.8 - 0.2 - - 10 - - - -
26/05:30am 1.2 NNW 6 8 1020.8 - 0.2 - - 10 - - - -
26/05:00am 1.5 N 5 7 1020.7 - 0.2 - - 10 - - - -
26/04:30am 2.0 N 4 6 1020.5 - 0.2 - - 10 - - - -
26/04:00am 2.1 N 4 6 1020.2 - 0.2 - - 10 - - - -
26/03:30am 2.3 N 3 5 1020.6 - 0.2 - - 10 - - - -
26/03:00am 2.9 N 6 7 1021.0 - 0.2 - - 10 - - - -
26/02:30am 2.8 NNE 6 7 1021.2 - 0.2 - - 10 - - - -
26/02:00am 3.0 N 5 6 1021.2 - 0.2 - - 10 - - - -
26/01:30am 3.1 NNW 5 6 1021.3 - 0.2 - - 10 - - - -
26/01:00am 3.3 NNW 3 4 1021.3 - 0.2 - - 10 - - - -
26/12:30am 3.6 NNW 6 7 1021.7 - 0.2 - - 10 - - - -
26/12:00am 3.6 NNW 5 7 1021.9 - 0.2 - - 10 - - - -
 
Date/Time
EST
Temp
°C
Wind Pressure Rain since
9am
mm
Weather Cloud Vis
km
Sea
Height
m
Swell
Dir  Spd
kts
Gust
kts
hPa Trend Height
m
Period
s
Dir
25/11:30pm 4.1 NNW 5 6 1021.9 - 0.2 - - 10 - - - -
25/11:00pm 4.5 NNW 7 8 1022.1 - 0.2 - - 10 - - - -
25/10:30pm 4.7 NNW 6 8 1022.3 - 0.2 - - 10 - - - -
25/10:00pm 4.8 NNW 6 8 1022.4 - 0.2 - - 10 - - - -
25/09:30pm 4.7 NNW 7 8 1022.3 - 0.2 - - 10 - - - -
25/09:00pm 4.8 NNW 5 6 1022.4 - 0.2 - - 10 - - - -
25/08:30pm 5.5 NNW 6 7 1022.5 - 0.2 - - 10 - - - -
25/08:00pm 5.5 NNW 4 5 1022.7 - 0.2 - - 10 - - - -
25/07:30pm 6.3 NNW 5 6 1022.6 - 0.2 - - 10 - - - -
25/07:00pm 6.8 NNW 4 5 1022.6 - 0.2 - - 10 - - - -
25/06:30pm 7.9 WSW 3 3 1022.5 - 0.2 - Cloudy 10 - - - -
25/06:00pm 8.3 CALM 0 0 1022.6 - 0.2 - Mostly cloudy 10 - - - -
25/05:30pm 9.1 CALM 0 0 1022.5 - 0.2 - Cloudy 10 - - - -
25/05:00pm 9.5 CALM 0 3 1022.3 - 0.2 - Partly cloudy 10 - - - -
25/04:30pm 10.1 WSW 5 7 1022.3 - 0.2 - Partly cloudy 10 - - - -
25/04:00pm 10.6 SW 8 10 1022.3 - 0.2 - Partly cloudy 10 - - - -
25/03:30pm 10.5 SW 9 13 1022.4 - 0.2 - Cloudy 10 - - - -
25/03:00pm 11.6 SW 6 9 1022.1 - 0.2 - Cloudy 10 - - - -
25/02:30pm 11.8 SW 3 6 1022.1 - 0.2 - Partly cloudy 10 - - - -
25/02:00pm 11.6 WSW 4 6 1022.3 - 0.2 - Partly cloudy 10 - - - -
25/01:30pm 10.9 SW 9 13 1022.5 - 0.2 - Partly cloudy 10 - - - -
25/01:00pm 11.5 SW 6 9 1022.6 - 0.2 - Partly cloudy 10 - - - -
25/12:30pm 11.7 SW 7 9 1022.7 - 0.2 - Partly cloudy 10 - - - -
25/12:00pm 11.1 WSW 5 8 1023.0 - 0.2 - - 10 - - - -
25/11:30am 10.2 SW 6 8 1023.3 - 0.2 - Partly cloudy 10 - - - -
25/11:00am 9.9 WSW 4 7 1023.5 - 0.2 - Partly cloudy 10 - - - -
25/10:30am 8.8 WNW 7 9 1023.2 - 0.2 - Partly cloudy 10 - - - -
25/10:00am 7.1 WNW 6 8 1023.2 - 0.2 - Partly cloudy 10 - - - -
25/09:30am 6.1 W 5 8 1023.0 - 0.0 - Partly cloudy 10 - - - -
25/09:00am 4.7 NW 5 6 1022.7 - 0.0 - Cloudy 10 - - - -
25/08:30am 2.9 NW 4 5 1022.4 - 0.0 - Partly cloudy 10 - - - -

Other Formats:

Comma delimited format used in spreadsheet applications
http://www.bom.gov.au/fwo/IDV60701/IDV60701.94865.axf

JavaScript Object Notation format (JSON) in row-major order
http://www.bom.gov.au/fwo/IDV60701/IDV60701.94865.json